sensor_id;sensor_type;location;lat;lon;timestamp;pressure;altitude;pressure_sealevel;temperature;humidity
42887;BME280;29032;56.028;92.904;2023-05-10T00:08:54;100143.28;;;8.66;45.73
42887;BME280;29032;56.028;92.904;2023-05-10T00:13:56;100157.81;;;8.60;46.19
42887;BME280;29032;56.028;92.904;2023-05-10T00:24:20;100161.59;;;8.63;44.01
42887;BME280;29032;56.028;92.904;2023-05-10T00:34:44;100174.50;;;8.72;43.89
42887;BME280;29032;56.028;92.904;2023-05-10T00:39:47;100168.44;;;8.68;44.69
42887;BME280;29032;56.028;92.904;2023-05-10T00:44:49;100173.91;;;8.94;43.52
42887;BME280;29032;56.028;92.904;2023-05-10T00:50:29;100165.50;;;9.08;42.89
42887;BME280;29032;56.028;92.904;2023-05-10T00:55:32;100169.03;;;9.09;42.79
42887;BME280;29032;56.028;92.904;2023-05-10T01:00:34;100164.31;;;9.21;43.17
42887;BME280;29032;56.028;92.904;2023-05-10T01:05:38;100169.84;;;9.21;41.94
42887;BME280;29032;56.028;92.904;2023-05-10T01:10:41;100167.06;;;9.21;43.34
42887;BME280;29032;56.028;92.904;2023-05-10T01:15:44;100169.81;;;9.52;42.55
42887;BME280;29032;56.028;92.904;2023-05-10T01:21:14;100178.78;;;9.84;41.02
42887;BME280;29032;56.028;92.904;2023-05-10T01:32:16;100184.78;;;9.71;40.45
42887;BME280;29032;56.028;92.904;2023-05-10T01:37:27;100187.56;;;9.77;40.11
42887;BME280;29032;56.028;92.904;2023-05-10T01:42:36;100182.81;;;9.83;39.51
42887;BME280;29032;56.028;92.904;2023-05-10T01:47:44;100185.66;;;9.46;39.58
42887;BME280;29032;56.028;92.904;2023-05-10T01:52:49;100193.56;;;9.64;40.11
42887;BME280;29032;56.028;92.904;2023-05-10T01:57:58;100197.31;;;9.61;40.29
42887;BME280;29032;56.028;92.904;2023-05-10T02:03:22;100185.97;;;9.59;39.90
42887;BME280;29032;56.028;92.904;2023-05-10T02:08:25;100193.78;;;9.61;39.45
42887;BME280;29032;56.028;92.904;2023-05-10T02:13:29;100189.06;;;9.72;40.16
42887;BME280;29032;56.028;92.904;2023-05-10T02:18:36;100195.44;;;9.90;39.17
42887;BME280;29032;56.028;92.904;2023-05-10T02:23:57;100195.50;;;10.01;38.40
42887;BME280;29032;56.028;92.904;2023-05-10T02:29:01;100187.16;;;9.95;37.77
42887;BME280;29032;56.028;92.904;2023-05-10T02:34:06;100188.94;;;10.04;36.75
42887;BME280;29032;56.028;92.904;2023-05-10T02:39:09;100181.66;;;10.07;35.01
42887;BME280;29032;56.028;92.904;2023-05-10T02:44:15;100176.34;;;10.03;35.53
42887;BME280;29032;56.028;92.904;2023-05-10T02:49:25;100174.56;;;9.94;36.83
42887;BME280;29032;56.028;92.904;2023-05-10T02:59:49;100176.38;;;10.14;35.81
42887;BME280;29032;56.028;92.904;2023-05-10T03:04:53;100179.22;;;10.42;35.77
42887;BME280;29032;56.028;92.904;2023-05-10T03:09:55;100171.66;;;10.43;35.66
42887;BME280;29032;56.028;92.904;2023-05-10T03:15:02;100179.22;;;10.48;35.36
42887;BME280;29032;56.028;92.904;2023-05-10T03:20:45;100173.44;;;10.68;35.89
42887;BME280;29032;56.028;92.904;2023-05-10T03:25:50;100181.50;;;10.61;35.05
42887;BME280;29032;56.028;92.904;2023-05-10T03:30:53;100173.44;;;10.57;34.51
42887;BME280;29032;56.028;92.904;2023-05-10T03:35:57;100175.47;;;10.57;35.16
42887;BME280;29032;56.028;92.904;2023-05-10T03:40:59;100175.72;;;10.59;35.03
42887;BME280;29032;56.028;92.904;2023-05-10T03:46:19;100171.94;;;10.73;34.63
42887;BME280;29032;56.028;92.904;2023-05-10T03:51:23;100168.19;;;10.93;35.09
42887;BME280;29032;56.028;92.904;2023-05-10T03:56:25;100165.63;;;11.23;34.43
42887;BME280;29032;56.028;92.904;2023-05-10T04:01:45;100166.13;;;11.27;34.16
42887;BME280;29032;56.028;92.904;2023-05-10T04:06:49;100169.91;;;11.18;35.13
42887;BME280;29032;56.028;92.904;2023-05-10T04:11:51;100151.22;;;11.35;33.96
42887;BME280;29032;56.028;92.904;2023-05-10T04:16:53;100148.16;;;11.45;34.28
42887;BME280;29032;56.028;92.904;2023-05-10T04:21:56;100160.53;;;11.49;33.93
42887;BME280;29032;56.028;92.904;2023-05-10T04:26:59;100162.50;;;11.60;33.87
42887;BME280;29032;56.028;92.904;2023-05-10T04:32:01;100150.34;;;11.69;34.42
42887;BME280;29032;56.028;92.904;2023-05-10T04:37:04;100131.56;;;11.91;33.63
42887;BME280;29032;56.028;92.904;2023-05-10T04:42:25;100142.38;;;12.01;33.24
42887;BME280;29032;56.028;92.904;2023-05-10T04:47:27;100130.69;;;12.08;33.83
42887;BME280;29032;56.028;92.904;2023-05-10T04:52:30;100141.50;;;12.23;34.19
42887;BME280;29032;56.028;92.904;2023-05-10T04:57:32;100142.75;;;12.27;33.76
42887;BME280;29032;56.028;92.904;2023-05-10T05:02:34;100131.41;;;12.19;33.54
42887;BME280;29032;56.028;92.904;2023-05-10T05:07:56;100124.59;;;12.15;33.16
42887;BME280;29032;56.028;92.904;2023-05-10T05:12:58;100122.19;;;12.36;33.04
42887;BME280;29032;56.028;92.904;2023-05-10T05:18:00;100117.13;;;12.70;32.07
42887;BME280;29032;56.028;92.904;2023-05-10T05:23:04;100116.28;;;12.81;32.00
42887;BME280;29032;56.028;92.904;2023-05-10T05:28:24;100111.34;;;12.68;32.08
42887;BME280;29032;56.028;92.904;2023-05-10T05:33:44;100115.31;;;12.42;31.38
42887;BME280;29032;56.028;92.904;2023-05-10T05:38:48;100077.88;;;12.43;31.94
42887;BME280;29032;56.028;92.904;2023-05-10T05:43:50;100102.88;;;12.79;30.80
42887;BME280;29032;56.028;92.904;2023-05-10T05:48:52;100106.19;;;12.78;30.21
42887;BME280;29032;56.028;92.904;2023-05-10T05:53:55;100100.78;;;12.85;30.46
42887;BME280;29032;56.028;92.904;2023-05-10T05:58:57;100102.84;;;13.09;30.49
42887;BME280;29032;56.028;92.904;2023-05-10T06:03:59;100096.59;;;13.03;29.92
42887;BME280;29032;56.028;92.904;2023-05-10T06:09:03;100096.72;;;13.35;29.68
42887;BME280;29032;56.028;92.904;2023-05-10T06:14:05;100088.50;;;13.48;28.68
42887;BME280;29032;56.028;92.904;2023-05-10T06:19:25;100102.22;;;13.65;29.51
42887;BME280;29032;56.028;92.904;2023-05-10T06:24:47;100097.88;;;13.89;28.58
42887;BME280;29032;56.028;92.904;2023-05-10T06:29:49;100101.34;;;13.76;27.44
42887;BME280;29032;56.028;92.904;2023-05-10T06:34:52;100097.41;;;13.47;27.41
42887;BME280;29032;56.028;92.904;2023-05-10T06:39:55;100092.75;;;13.74;28.26
42887;BME280;29032;56.028;92.904;2023-05-10T06:44:57;100090.34;;;13.83;27.52
42887;BME280;29032;56.028;92.904;2023-05-10T06:49:59;100100.06;;;13.77;27.87
42887;BME280;29032;56.028;92.904;2023-05-10T07:00:42;100109.47;;;13.93;27.20
42887;BME280;29032;56.028;92.904;2023-05-10T07:05:44;100106.31;;;13.83;27.04
42887;BME280;29032;56.028;92.904;2023-05-10T07:10:47;100113.56;;;13.92;26.20
42887;BME280;29032;56.028;92.904;2023-05-10T07:16:08;100105.56;;;13.64;25.81
42887;BME280;29032;56.028;92.904;2023-05-10T07:21:10;100117.66;;;13.47;26.64
42887;BME280;29032;56.028;92.904;2023-05-10T07:26:32;100119.00;;;14.03;26.74
42887;BME280;29032;56.028;92.904;2023-05-10T07:31:34;100111.88;;;14.21;25.64
42887;BME280;29032;56.028;92.904;2023-05-10T07:36:54;100116.13;;;13.90;26.01
42887;BME280;29032;56.028;92.904;2023-05-10T07:41:57;100116.50;;;13.99;26.14
42887;BME280;29032;56.028;92.904;2023-05-10T07:46:59;100116.34;;;14.29;25.46
42887;BME280;29032;56.028;92.904;2023-05-10T07:52:03;100111.09;;;14.39;25.04
42887;BME280;29032;56.028;92.904;2023-05-10T07:57:25;100115.88;;;14.57;24.35
42887;BME280;29032;56.028;92.904;2023-05-10T08:02:27;100109.75;;;14.46;25.15
42887;BME280;29032;56.028;92.904;2023-05-10T08:07:29;100112.97;;;14.82;25.07
42887;BME280;29032;56.028;92.904;2023-05-10T08:12:33;100119.91;;;15.34;24.24
42887;BME280;29032;56.028;92.904;2023-05-10T08:17:35;100127.44;;;15.26;23.59
42887;BME280;29032;56.028;92.904;2023-05-10T08:22:37;100128.94;;;15.13;23.59
42887;BME280;29032;56.028;92.904;2023-05-10T08:27:40;100141.63;;;15.28;23.77
42887;BME280;29032;56.028;92.904;2023-05-10T08:32:42;100140.88;;;15.27;23.94
42887;BME280;29032;56.028;92.904;2023-05-10T08:38:02;100141.88;;;15.56;23.51
42887;BME280;29032;56.028;92.904;2023-05-10T08:43:08;100146.19;;;15.57;23.32
42887;BME280;29032;56.028;92.904;2023-05-10T08:48:11;100141.94;;;15.90;22.34
42887;BME280;29032;56.028;92.904;2023-05-10T08:53:13;100135.25;;;16.07;21.85
42887;BME280;29032;56.028;92.904;2023-05-10T09:03:40;100140.56;;;16.31;21.93
42887;BME280;29032;56.028;92.904;2023-05-10T09:08:42;100141.50;;;16.34;21.19
42887;BME280;29032;56.028;92.904;2023-05-10T09:13:48;100156.56;;;16.44;22.69
42887;BME280;29032;56.028;92.904;2023-05-10T09:18:50;100163.00;;;16.52;21.22
42887;BME280;29032;56.028;92.904;2023-05-10T09:23:52;100158.00;;;16.71;20.70
42887;BME280;29032;56.028;92.904;2023-05-10T09:34:17;100183.91;;;16.51;20.48
42887;BME280;29032;56.028;92.904;2023-05-10T09:39:20;100174.47;;;15.80;20.84
42887;BME280;29032;56.028;92.904;2023-05-10T09:44:25;100184.91;;;15.53;21.44
42887;BME280;29032;56.028;92.904;2023-05-10T09:49:28;100180.06;;;15.93;21.44
42887;BME280;29032;56.028;92.904;2023-05-10T09:59:52;100190.94;;;16.78;20.02
42887;BME280;29032;56.028;92.904;2023-05-10T10:04:55;100189.22;;;16.41;20.18
42887;BME280;29032;56.028;92.904;2023-05-10T10:09:58;100202.19;;;16.18;19.63
42887;BME280;29032;56.028;92.904;2023-05-10T10:15:02;100208.22;;;16.22;20.36
42887;BME280;29032;56.028;92.904;2023-05-10T10:20:22;100210.56;;;16.65;20.91
42887;BME280;29032;56.028;92.904;2023-05-10T10:25:25;100210.41;;;17.26;19.46
42887;BME280;29032;56.028;92.904;2023-05-10T10:30:49;100217.09;;;17.44;19.08
42887;BME280;29032;56.028;92.904;2023-05-10T10:35:52;100210.59;;;17.77;17.77
42887;BME280;29032;56.028;92.904;2023-05-10T10:46:23;100224.69;;;20.43;16.09
42887;BME280;29032;56.028;92.904;2023-05-10T10:51:28;100236.00;;;21.00;15.98
42887;BME280;29032;56.028;92.904;2023-05-10T10:56:30;100233.53;;;21.29;15.48
42887;BME280;29032;56.028;92.904;2023-05-10T11:07:15;100237.16;;;21.64;15.38
42887;BME280;29032;56.028;92.904;2023-05-10T11:12:18;100235.63;;;19.37;16.11
42887;BME280;29032;56.028;92.904;2023-05-10T11:17:24;100240.41;;;17.88;17.17
42887;BME280;29032;56.028;92.904;2023-05-10T11:22:26;100252.00;;;16.93;17.77
42887;BME280;29032;56.028;92.904;2023-05-10T11:27:28;100256.75;;;16.51;17.80
42887;BME280;29032;56.028;92.904;2023-05-10T11:32:32;100259.81;;;16.26;18.58
42887;BME280;29032;56.028;92.904;2023-05-10T11:43:12;100276.53;;;15.79;19.32
42887;BME280;29032;56.028;92.904;2023-05-10T11:48:37;100275.50;;;15.50;19.79
42887;BME280;29032;56.028;92.904;2023-05-10T11:53:40;100280.13;;;15.15;19.43
42887;BME280;29032;56.028;92.904;2023-05-10T11:58:42;100275.38;;;15.10;19.77
42887;BME280;29032;56.028;92.904;2023-05-10T12:03:45;100276.44;;;15.07;19.72
42887;BME280;29032;56.028;92.904;2023-05-10T12:09:06;100294.47;;;14.93;19.79
42887;BME280;29032;56.028;92.904;2023-05-10T12:14:26;100294.63;;;14.57;20.35
42887;BME280;29032;56.028;92.904;2023-05-10T12:19:48;100296.66;;;14.81;20.13
42887;BME280;29032;56.028;92.904;2023-05-10T12:24:50;100309.41;;;14.77;20.45
42887;BME280;29032;56.028;92.904;2023-05-10T12:29:52;100313.25;;;14.74;19.93
42887;BME280;29032;56.028;92.904;2023-05-10T12:34:57;100318.09;;;14.73;19.85
42887;BME280;29032;56.028;92.904;2023-05-10T12:45:19;100331.53;;;14.75;19.66
42887;BME280;29032;56.028;92.904;2023-05-10T12:50:23;100351.22;;;14.63;19.20
42887;BME280;29032;56.028;92.904;2023-05-10T12:55:25;100345.66;;;14.39;19.50
42887;BME280;29032;56.028;92.904;2023-05-10T13:00:45;100347.75;;;14.33;20.31
42887;BME280;29032;56.028;92.904;2023-05-10T13:11:09;100359.22;;;13.80;19.72
42887;BME280;29032;56.028;92.904;2023-05-10T13:16:30;100366.84;;;13.80;19.61
42887;BME280;29032;56.028;92.904;2023-05-10T13:21:33;100365.25;;;13.54;20.13
42887;BME280;29032;56.028;92.904;2023-05-10T13:26:35;100382.13;;;13.32;20.46
42887;BME280;29032;56.028;92.904;2023-05-10T13:31:37;100394.00;;;13.38;20.47
42887;BME280;29032;56.028;92.904;2023-05-10T13:36:41;100388.13;;;13.47;20.19
42887;BME280;29032;56.028;92.904;2023-05-10T13:41:43;100402.63;;;13.35;20.15
42887;BME280;29032;56.028;92.904;2023-05-10T13:46:45;100406.19;;;13.29;20.71
42887;BME280;29032;56.028;92.904;2023-05-10T13:51:48;100408.13;;;13.05;21.28
42887;BME280;29032;56.028;92.904;2023-05-10T13:56:50;100420.38;;;12.79;20.84
42887;BME280;29032;56.028;92.904;2023-05-10T14:01:52;100420.44;;;12.68;21.12
42887;BME280;29032;56.028;92.904;2023-05-10T14:06:56;100422.72;;;12.69;21.41
42887;BME280;29032;56.028;92.904;2023-05-10T14:11:58;100436.16;;;12.60;21.25
42887;BME280;29032;56.028;92.904;2023-05-10T14:17:00;100441.00;;;12.48;21.33
42887;BME280;29032;56.028;92.904;2023-05-10T14:22:04;100444.53;;;12.43;21.29
42887;BME280;29032;56.028;92.904;2023-05-10T14:27:06;100454.94;;;12.42;21.17
42887;BME280;29032;56.028;92.904;2023-05-10T14:32:08;100465.31;;;12.31;21.62
42887;BME280;29032;56.028;92.904;2023-05-10T14:37:12;100463.03;;;12.18;22.08
42887;BME280;29032;56.028;92.904;2023-05-10T14:42:15;100465.31;;;12.14;21.05
42887;BME280;29032;56.028;92.904;2023-05-10T14:47:35;100475.97;;;12.32;22.00
42887;BME280;29032;56.028;92.904;2023-05-10T14:52:38;100473.13;;;12.10;21.23
42887;BME280;29032;56.028;92.904;2023-05-10T14:57:40;100485.28;;;12.07;22.10
42887;BME280;29032;56.028;92.904;2023-05-10T15:02:42;100492.13;;;12.00;21.70
42887;BME280;29032;56.028;92.904;2023-05-10T15:07:46;100500.47;;;12.00;22.18
42887;BME280;29032;56.028;92.904;2023-05-10T15:18:09;100510.06;;;11.93;22.48
42887;BME280;29032;56.028;92.904;2023-05-10T15:23:12;100505.75;;;11.87;21.58
42887;BME280;29032;56.028;92.904;2023-05-10T15:28:14;100510.31;;;11.79;22.13
42887;BME280;29032;56.028;92.904;2023-05-10T15:33:16;100515.34;;;11.69;22.44
42887;BME280;29032;56.028;92.904;2023-05-10T15:38:20;100519.38;;;11.74;22.99
42887;BME280;29032;56.028;92.904;2023-05-10T15:43:40;100523.69;;;11.80;22.70
42887;BME280;29032;56.028;92.904;2023-05-10T15:48:42;100526.19;;;11.56;23.04
42887;BME280;29032;56.028;92.904;2023-05-10T15:53:46;100529.66;;;11.45;22.91
42887;BME280;29032;56.028;92.904;2023-05-10T15:58:48;100525.56;;;11.29;23.07
42887;BME280;29032;56.028;92.904;2023-05-10T16:03:50;100523.81;;;11.26;22.83
42887;BME280;29032;56.028;92.904;2023-05-10T16:08:54;100540.19;;;11.24;23.25
42887;BME280;29032;56.028;92.904;2023-05-10T16:13:56;100542.72;;;11.22;27.66
42887;BME280;29032;56.028;92.904;2023-05-10T16:18:58;100547.28;;;11.25;28.31
42887;BME280;29032;56.028;92.904;2023-05-10T16:24:02;100549.31;;;11.30;27.33
42887;BME280;29032;56.028;92.904;2023-05-10T16:29:23;100546.47;;;11.14;26.37
42887;BME280;29032;56.028;92.904;2023-05-10T16:34:43;100556.13;;;10.81;24.67
42887;BME280;29032;56.028;92.904;2023-05-10T16:39:47;100552.44;;;10.58;24.90
42887;BME280;29032;56.028;92.904;2023-05-10T16:44:50;100553.09;;;10.47;25.97
42887;BME280;29032;56.028;92.904;2023-05-10T16:49:52;100542.69;;;10.37;24.71
42887;BME280;29032;56.028;92.904;2023-05-10T16:54:56;100574.97;;;10.40;25.45
42887;BME280;29032;56.028;92.904;2023-05-10T16:59:58;100561.91;;;10.46;24.70
42887;BME280;29032;56.028;92.904;2023-05-10T17:05:00;100572.66;;;10.64;24.61
42887;BME280;29032;56.028;92.904;2023-05-10T17:10:04;100573.81;;;10.83;24.41
42887;BME280;29032;56.028;92.904;2023-05-10T17:15:07;100572.06;;;10.86;24.33
42887;BME280;29032;56.028;92.904;2023-05-10T17:20:10;100570.78;;;10.81;25.20
42887;BME280;29032;56.028;92.904;2023-05-10T17:25:13;100568.63;;;10.65;26.32
42887;BME280;29032;56.028;92.904;2023-05-10T17:30:15;100577.31;;;10.47;27.73
42887;BME280;29032;56.028;92.904;2023-05-10T17:35:17;100575.53;;;10.44;27.63
42887;BME280;29032;56.028;92.904;2023-05-10T17:40:21;100579.78;;;10.39;28.14
42887;BME280;29032;56.028;92.904;2023-05-10T17:45:23;100579.44;;;10.32;28.35
42887;BME280;29032;56.028;92.904;2023-05-10T17:50:25;100575.59;;;10.23;28.54
42887;BME280;29032;56.028;92.904;2023-05-10T17:55:29;100569.25;;;10.17;28.75
42887;BME280;29032;56.028;92.904;2023-05-10T18:00:31;100573.69;;;10.09;28.53
42887;BME280;29032;56.028;92.904;2023-05-10T18:10:56;100581.50;;;9.85;29.40
42887;BME280;29032;56.028;92.904;2023-05-10T18:15:58;100575.53;;;9.66;29.55
42887;BME280;29032;56.028;92.904;2023-05-10T18:21:00;100588.63;;;9.45;29.56
42887;BME280;29032;56.028;92.904;2023-05-10T18:26:04;100582.94;;;9.34;29.99
42887;BME280;29032;56.028;92.904;2023-05-10T18:31:06;100583.72;;;9.19;30.33
42887;BME280;29032;56.028;92.904;2023-05-10T18:36:08;100588.25;;;9.17;30.27
42887;BME280;29032;56.028;92.904;2023-05-10T18:41:11;100589.94;;;9.14;30.93
42887;BME280;29032;56.028;92.904;2023-05-10T18:46:14;100584.28;;;9.03;31.19
42887;BME280;29032;56.028;92.904;2023-05-10T18:51:16;100587.94;;;8.95;31.52
42887;BME280;29032;56.028;92.904;2023-05-10T18:56:19;100595.66;;;8.90;31.14
42887;BME280;29032;56.028;92.904;2023-05-10T19:01:39;100597.19;;;8.91;30.12
42887;BME280;29032;56.028;92.904;2023-05-10T19:06:41;100591.03;;;8.67;31.33
42887;BME280;29032;56.028;92.904;2023-05-10T19:11:45;100599.34;;;8.67;32.17
42887;BME280;29032;56.028;92.904;2023-05-10T19:17:05;100596.47;;;8.61;31.83
42887;BME280;29032;56.028;92.904;2023-05-10T19:22:07;100594.47;;;8.62;31.15
42887;BME280;29032;56.028;92.904;2023-05-10T19:27:29;100587.69;;;8.63;30.27
42887;BME280;29032;56.028;92.904;2023-05-10T19:32:31;100587.44;;;8.31;31.68
42887;BME280;29032;56.028;92.904;2023-05-10T19:37:33;100587.34;;;8.26;32.04
42887;BME280;29032;56.028;92.904;2023-05-10T19:47:58;100596.44;;;7.88;32.52
42887;BME280;29032;56.028;92.904;2023-05-10T19:53:00;100593.75;;;7.78;32.99
42887;BME280;29032;56.028;92.904;2023-05-10T19:58:03;100592.44;;;7.74;32.59
42887;BME280;29032;56.028;92.904;2023-05-10T20:03:05;100592.78;;;7.67;32.59
42887;BME280;29032;56.028;92.904;2023-05-10T20:08:07;100596.22;;;7.62;33.00
42887;BME280;29032;56.028;92.904;2023-05-10T20:24:09;100597.50;;;7.51;33.10
42887;BME280;29032;56.028;92.904;2023-05-10T20:29:11;100605.69;;;7.46;33.35
42887;BME280;29032;56.028;92.904;2023-05-10T20:34:15;100590.25;;;7.39;33.74
42887;BME280;29032;56.028;92.904;2023-05-10T20:39:17;100603.91;;;7.34;33.82
42887;BME280;29032;56.028;92.904;2023-05-10T20:44:19;100604.81;;;7.31;33.88
42887;BME280;29032;56.028;92.904;2023-05-10T20:49:41;100602.25;;;7.27;33.92
42887;BME280;29032;56.028;92.904;2023-05-10T20:54:43;100608.75;;;7.15;33.78
42887;BME280;29032;56.028;92.904;2023-05-10T20:59:45;100606.63;;;7.10;34.16
42887;BME280;29032;56.028;92.904;2023-05-10T21:04:49;100606.34;;;7.08;34.65
42887;BME280;29032;56.028;92.904;2023-05-10T21:09:51;100605.78;;;6.94;34.62
42887;BME280;29032;56.028;92.904;2023-05-10T21:20:15;100605.69;;;6.80;34.60
42887;BME280;29032;56.028;92.904;2023-05-10T21:25:17;100605.78;;;6.61;34.99
42887;BME280;29032;56.028;92.904;2023-05-10T21:30:19;100600.75;;;6.51;35.21
42887;BME280;29032;56.028;92.904;2023-05-10T21:35:22;100613.91;;;6.47;35.75
42887;BME280;29032;56.028;92.904;2023-05-10T21:40:24;100617.00;;;6.39;35.33
42887;BME280;29032;56.028;92.904;2023-05-10T21:45:26;100610.00;;;6.29;35.90
42887;BME280;29032;56.028;92.904;2023-05-10T21:50:30;100598.03;;;6.32;35.37
42887;BME280;29032;56.028;92.904;2023-05-10T21:55:51;100614.72;;;6.38;35.16
42887;BME280;29032;56.028;92.904;2023-05-10T22:00:53;100603.84;;;6.43;35.41
42887;BME280;29032;56.028;92.904;2023-05-10T22:05:56;100603.22;;;6.49;35.32
42887;BME280;29032;56.028;92.904;2023-05-10T22:11:16;100603.84;;;6.43;34.67
42887;BME280;29032;56.028;92.904;2023-05-10T22:16:18;100597.25;;;6.32;35.88
42887;BME280;29032;56.028;92.904;2023-05-10T22:21:22;100601.69;;;6.38;35.85
42887;BME280;29032;56.028;92.904;2023-05-10T22:26:24;100604.50;;;6.20;35.70
42887;BME280;29032;56.028;92.904;2023-05-10T22:31:26;100598.41;;;6.07;35.97
42887;BME280;29032;56.028;92.904;2023-05-10T22:36:30;100597.63;;;5.97;36.46
42887;BME280;29032;56.028;92.904;2023-05-10T22:41:32;100597.19;;;5.99;36.24
42887;BME280;29032;56.028;92.904;2023-05-10T22:46:35;100591.34;;;5.97;36.12
42887;BME280;29032;56.028;92.904;2023-05-10T22:51:57;100588.91;;;5.99;36.65
42887;BME280;29032;56.028;92.904;2023-05-10T22:56:59;100580.19;;;6.00;36.66
42887;BME280;29032;56.028;92.904;2023-05-10T23:02:01;100578.03;;;6.13;36.55
42887;BME280;29032;56.028;92.904;2023-05-10T23:12:25;100585.78;;;6.24;36.58
42887;BME280;29032;56.028;92.904;2023-05-10T23:17:27;100578.16;;;6.28;36.65
42887;BME280;29032;56.028;92.904;2023-05-10T23:22:30;100569.25;;;6.33;36.25
42887;BME280;29032;56.028;92.904;2023-05-10T23:27:32;100579.19;;;6.40;36.28
42887;BME280;29032;56.028;92.904;2023-05-10T23:32:35;100567.50;;;6.45;36.06
42887;BME280;29032;56.028;92.904;2023-05-10T23:37:38;100559.38;;;6.51;35.71
42887;BME280;29032;56.028;92.904;2023-05-10T23:42:40;100569.22;;;6.42;35.28
42887;BME280;29032;56.028;92.904;2023-05-10T23:47:42;100558.06;;;6.37;35.57
42887;BME280;29032;56.028;92.904;2023-05-10T23:58:25;100558.47;;;6.44;35.47
